Time;durP1;ratioP1;P1;durP2;ratioP2;P2;SDS_P1;SDS_P2;PMS_P1;PMS_P2;Temp;Humidity;BMP_temperature;BMP_pressure;BME280_temperature;BME280_humidity;BME280_pressure;Samples;Min_cycle;Max_cycle;Signal;HPM_P1;HPM_P2
2021/12/24 00:02:10;;;;;;;46.38;17.00;;;;;;;;;;4856416;29;20057;-65
2021/12/24 00:04:36;;;;;;;47.55;17.67;;;;;;;;;;4856494;29;20034;-65
2021/12/24 00:07:02;;;;;;;28.40;10.75;;;;;;;;;;4919049;29;20032;-65
2021/12/24 00:09:32;;;;;;;60.88;18.98;;;;;;;;;;4933287;29;20035;-64
2021/12/24 00:12:01;;;;;;;38.17;15.18;;;;;;;;;;4933030;29;20098;-66
2021/12/24 00:14:31;;;;;;;43.28;15.07;;;;;;;;;;4933484;29;20028;-66
2021/12/24 00:17:02;;;;;;;33.53;13.25;;;;;;;;;;4933461;29;20024;-64
2021/12/24 00:35:32;;;;;;;33.60;13.68;;;;;;;;;;4936621;29;20051;-64
2021/12/24 00:38:03;;;;;;;28.17;11.57;;;;;;;;;;4936578;29;20488;-65
2021/12/24 00:40:30;;;;;;;21.08;9.68;;;;;;;;;;4936445;29;20046;-64
2021/12/24 00:42:57;;;;;;;20.83;9.88;;;;;;;;;;4936331;29;20050;-64
2021/12/24 00:45:26;;;;;;;17.08;8.10;;;;;;;;;;4936330;29;20102;-64
2021/12/24 00:47:53;;;;;;;18.05;8.18;;;;;;;;;;4936553;29;20033;-65
2021/12/24 00:50:22;;;;;;;20.33;9.50;;;;;;;;;;4936626;29;20028;-65
2021/12/24 00:55:02;;;;;;;49.85;19.75;;;;;;;;;;4936476;29;20475;-65
2021/12/24 00:55:38;;;;;;;23.55;10.32;;;;;;;;;;4934132;29;20114;-64
2021/12/24 00:58:04;;;;;;;19.75;9.25;;;;;;;;;;4936091;29;20043;-65
2021/12/24 01:00:32;;;;;;;18.48;9.45;;;;;;;;;;4936385;29;20055;-65
2021/12/24 01:02:59;;;;;;;19.20;7.68;;;;;;;;;;4936339;29;20555;-65
2021/12/24 01:05:27;;;;;;;16.85;8.82;;;;;;;;;;4936631;29;20047;-65
2021/12/24 01:07:53;;;;;;;26.10;10.40;;;;;;;;;;4936355;29;20063;-66
2021/12/24 01:10:24;;;;;;;16.33;8.57;;;;;;;;;;4936417;29;20074;-65
2021/12/24 01:12:50;;;;;;;15.15;6.18;;;;;;;;;;4935900;29;20115;-65
2021/12/24 01:15:18;;;;;;;15.27;8.00;;;;;;;;;;4936166;29;20042;-65
2021/12/24 01:18:02;;;;;;;19.23;8.45;;;;;;;;;;4936349;29;20509;-65
2021/12/24 01:20:51;;;;;;;17.95;8.63;;;;;;;;;;4935618;29;20024;-65
2021/12/24 01:44:28;;;;;;;13.05;6.97;;;;;;;;;;4935631;29;20051;-63
2021/12/24 01:47:02;;;;;;;18.25;7.30;;;;;;;;;;4935444;29;20030;-63
2021/12/24 01:49:28;;;;;;;15.07;7.47;;;;;;;;;;4935510;29;20020;-65
2021/12/24 01:51:55;;;;;;;14.10;7.18;;;;;;;;;;4935623;29;20031;-65
2021/12/24 01:54:21;;;;;;;10.55;6.25;;;;;;;;;;4935679;29;20038;-64
2021/12/24 01:56:47;;;;;;;12.13;6.72;;;;;;;;;;4935558;29;20118;-66
2021/12/24 01:59:14;;;;;;;12.95;6.40;;;;;;;;;;4935125;29;20126;-65
2021/12/24 02:01:40;;;;;;;13.15;7.05;;;;;;;;;;4935457;29;20051;-65
2021/12/24 02:04:06;;;;;;;11.40;5.93;;;;;;;;;;4935394;29;20436;-65
2021/12/24 02:06:33;;;;;;;14.40;6.55;;;;;;;;;;4935249;29;20027;-65
2021/12/24 02:08:59;;;;;;;12.95;7.20;;;;;;;;;;4935310;29;20087;-65
2021/12/24 02:11:25;;;;;;;13.10;6.72;;;;;;;;;;4935386;29;20544;-65
2021/12/24 02:13:52;;;;;;;14.38;6.10;;;;;;;;;;4934834;29;20063;-65
2021/12/24 02:29:25;;;;;;;10.70;5.90;;;;;;;;;;4934972;29;20195;-65
2021/12/24 02:31:51;;;;;;;11.77;5.93;;;;;;;;;;4934769;29;20051;-65
2021/12/24 02:34:17;;;;;;;11.98;5.95;;;;;;;;;;4935025;29;20115;-64
2021/12/24 02:36:43;;;;;;;9.38;5.70;;;;;;;;;;4934488;29;20040;-65
2021/12/24 02:39:09;;;;;;;9.75;5.72;;;;;;;;;;4934753;29;20044;-64
2021/12/24 02:41:35;;;;;;;11.45;5.82;;;;;;;;;;4934800;29;20114;-65
2021/12/24 02:44:01;;;;;;;14.13;6.45;;;;;;;;;;4934591;29;20040;-65
2021/12/24 02:46:39;;;;;;;10.48;6.10;;;;;;;;;;4934609;29;20460;-65
2021/12/24 02:49:13;;;;;;;9.65;5.70;;;;;;;;;;4934619;29;20147;-64
2021/12/24 02:54:24;;;;;;;9.77;5.50;;;;;;;;;;4934988;29;20510;-64
2021/12/24 02:56:53;;;;;;;12.13;5.70;;;;;;;;;;4934585;29;20472;-64
2021/12/24 02:59:25;;;;;;;10.88;5.43;;;;;;;;;;4934373;29;20064;-64
2021/12/24 03:01:51;;;;;;;7.43;4.22;;;;;;;;;;4935255;29;20024;-64
2021/12/24 03:04:17;;;;;;;9.93;5.63;;;;;;;;;;4936046;29;20050;-64
2021/12/24 03:06:46;;;;;;;10.18;5.30;;;;;;;;;;4935725;29;20032;-65
2021/12/24 03:09:14;;;;;;;9.18;5.60;;;;;;;;;;4934291;29;20019;-64
2021/12/24 03:11:40;;;;;;;11.15;5.70;;;;;;;;;;4934025;29;20031;-65
2021/12/24 03:14:07;;;;;;;9.88;5.43;;;;;;;;;;4934251;29;20394;-65
2021/12/24 03:16:34;;;;;;;11.32;5.32;;;;;;;;;;4934244;29;20027;-64
2021/12/24 03:19:00;;;;;;;11.00;5.53;;;;;;;;;;4934133;29;20042;-64
2021/12/24 03:21:33;;;;;;;9.45;5.07;;;;;;;;;;4934476;29;20462;-64
2021/12/24 03:26:29;;;;;;;9.98;5.55;;;;;;;;;;4934406;29;20110;-65
2021/12/24 03:28:55;;;;;;;10.25;5.07;;;;;;;;;;4934060;29;20031;-64
2021/12/24 03:31:22;;;;;;;9.88;5.25;;;;;;;;;;4934070;29;20031;-65
2021/12/24 03:33:48;;;;;;;12.10;5.80;;;;;;;;;;4933958;29;20036;-65
2021/12/24 03:36:15;;;;;;;10.07;5.05;;;;;;;;;;4933963;29;20511;-64
2021/12/24 03:38:41;;;;;;;9.82;5.00;;;;;;;;;;4933962;29;20488;-64
2021/12/24 03:41:07;;;;;;;8.15;4.60;;;;;;;;;;4933999;29;20062;-64
2021/12/24 03:43:33;;;;;;;9.13;4.75;;;;;;;;;;4933764;29;20095;-65
2021/12/24 03:46:07;;;;;;;10.05;4.72;;;;;;;;;;4933751;29;20071;-65
2021/12/24 03:56:22;;;;;;;10.07;4.65;;;;;;;;;;4934001;29;20042;-65
2021/12/24 03:58:48;;;;;;;8.68;4.97;;;;;;;;;;4933443;29;20040;-65
2021/12/24 04:01:14;;;;;;;9.55;4.78;;;;;;;;;;4933928;29;20031;-64
2021/12/24 04:03:40;;;;;;;9.55;4.90;;;;;;;;;;4935821;29;20527;-64
2021/12/24 04:06:06;;;;;;;14.63;5.68;;;;;;;;;;4937699;29;20031;-64
2021/12/24 04:08:32;;;;;;;11.27;5.13;;;;;;;;;;4937591;29;20045;-65
2021/12/24 04:10:58;;;;;;;15.15;5.57;;;;;;;;;;4937613;29;20035;-64
2021/12/24 04:13:24;;;;;;;9.77;5.20;;;;;;;;;;4936976;29;20048;-65
2021/12/24 04:15:50;;;;;;;12.13;5.50;;;;;;;;;;4937379;29;20028;-64
2021/12/24 04:18:23;;;;;;;9.55;5.45;;;;;;;;;;4937185;29;20075;-64
2021/12/24 04:26:19;;;;;;;11.23;5.93;;;;;;;;;;4937373;29;20107;-65
2021/12/24 04:28:45;;;;;;;11.38;5.65;;;;;;;;;;4937304;29;20032;-64
2021/12/24 04:31:11;;;;;;;10.98;5.55;;;;;;;;;;4937357;29;20039;-64
2021/12/24 04:33:40;;;;;;;14.25;5.80;;;;;;;;;;4937138;29;20396;-64
2021/12/24 05:03:13;;;;;;;13.52;6.20;;;;;;;;;;4936658;29;20042;-64
2021/12/24 05:05:50;;;;;;;9.27;5.22;;;;;;;;;;4919209;29;20452;-65
2021/12/24 05:10:43;;;;;;;11.27;6.03;;;;;;;;;;4936637;29;20107;-65
2021/12/24 05:13:10;;;;;;;7.78;4.90;;;;;;;;;;4935822;29;20059;-64
2021/12/24 05:15:37;;;;;;;10.40;4.32;;;;;;;;;;4936111;29;20050;-65
2021/12/24 05:23:39;;;;;;;10.32;4.53;;;;;;;;;;4858921;29;20462;-65
2021/12/24 05:26:05;;;;;;;9.23;4.05;;;;;;;;;;4858863;29;20120;-64
2021/12/24 05:28:32;;;;;;;11.45;4.28;;;;;;;;;;4858952;29;20030;-65
2021/12/24 05:30:58;;;;;;;13.93;4.25;;;;;;;;;;4858734;29;20038;-66
2021/12/24 05:33:24;;;;;;;10.00;4.40;;;;;;;;;;4858482;29;20041;-65
2021/12/24 05:35:50;;;;;;;8.90;4.57;;;;;;;;;;4858475;29;20074;-64
2021/12/24 05:38:16;;;;;;;9.20;4.93;;;;;;;;;;4858161;29;20050;-65
2021/12/24 05:40:43;;;;;;;7.45;4.18;;;;;;;;;;4858412;29;20068;-64
2021/12/24 05:43:10;;;;;;;11.55;5.18;;;;;;;;;;4858296;29;20040;-65
2021/12/24 05:45:36;;;;;;;16.80;5.15;;;;;;;;;;4858018;29;20552;-64
2021/12/24 05:48:03;;;;;;;14.80;4.90;;;;;;;;;;4857974;29;20078;-64
2021/12/24 05:50:29;;;;;;;14.50;5.15;;;;;;;;;;4858107;29;20034;-64
2021/12/24 05:52:57;;;;;;;10.02;5.15;;;;;;;;;;4858220;29;20098;-64
2021/12/24 05:55:23;;;;;;;12.73;5.05;;;;;;;;;;4858019;29;20029;-63
2021/12/24 05:57:49;;;;;;;14.07;5.38;;;;;;;;;;4893690;29;20066;-64
2021/12/24 06:00:16;;;;;;;10.75;4.60;;;;;;;;;;4935023;29;20427;-64
2021/12/24 06:02:42;;;;;;;11.25;5.13;;;;;;;;;;4934794;29;20123;-65
2021/12/24 06:05:09;;;;;;;11.68;5.13;;;;;;;;;;4917373;29;20415;-65
2021/12/24 06:07:35;;;;;;;12.90;5.80;;;;;;;;;;4934608;29;20023;-64
2021/12/24 06:10:01;;;;;;;10.65;4.82;;;;;;;;;;4934537;29;20082;-65
2021/12/24 06:12:30;;;;;;;11.57;5.03;;;;;;;;;;4934786;29;20513;-64
2021/12/24 06:15:02;;;;;;;11.82;5.45;;;;;;;;;;4934870;29;20038;-64
2021/12/24 06:17:28;;;;;;;10.20;4.97;;;;;;;;;;4934622;29;20058;-64
2021/12/24 06:19:54;;;;;;;9.38;4.95;;;;;;;;;;4934439;29;20043;-64
2021/12/24 06:22:20;;;;;;;10.18;4.45;;;;;;;;;;4934453;29;20050;-65
2021/12/24 06:24:46;;;;;;;13.48;4.63;;;;;;;;;;4934480;29;20112;-65
2021/12/24 06:27:12;;;;;;;9.25;4.80;;;;;;;;;;4933759;29;20034;-64
2021/12/24 06:29:39;;;;;;;9.70;4.95;;;;;;;;;;4923504;29;20039;-64
2021/12/24 06:32:05;;;;;;;11.40;5.20;;;;;;;;;;4914075;29;20028;-65
2021/12/24 06:34:39;;;;;;;9.30;4.72;;;;;;;;;;4916972;29;20017;-66
2021/12/24 06:37:08;;;;;;;10.85;4.70;;;;;;;;;;4922874;29;20032;-66
2021/12/24 06:39:34;;;;;;;11.07;4.78;;;;;;;;;;4916812;29;20044;-65
2021/12/24 06:42:00;;;;;;;9.75;5.10;;;;;;;;;;4915280;29;20043;-65
2021/12/24 06:44:26;;;;;;;13.98;5.13;;;;;;;;;;4915317;29;20115;-67
2021/12/24 06:46:53;;;;;;;13.13;5.22;;;;;;;;;;4915131;29;20043;-64
2021/12/24 06:49:19;;;;;;;9.48;5.35;;;;;;;;;;4914298;29;20028;-70
2021/12/24 06:51:45;;;;;;;11.05;5.57;;;;;;;;;;4914107;29;20036;-67
2021/12/24 06:54:11;;;;;;;12.60;5.57;;;;;;;;;;4914360;29;20473;-66
2021/12/24 06:56:37;;;;;;;24.33;8.40;;;;;;;;;;4914483;29;20044;-63
2021/12/24 06:59:04;;;;;;;20.60;8.60;;;;;;;;;;4915002;29;20044;-65
2021/12/24 07:01:30;;;;;;;15.65;7.28;;;;;;;;;;4914447;29;20038;-65
2021/12/24 07:03:56;;;;;;;20.77;11.43;;;;;;;;;;4915599;29;20501;-67
2021/12/24 07:06:22;;;;;;;17.98;7.68;;;;;;;;;;4915078;29;20032;-68
2021/12/24 07:08:49;;;;;;;16.50;7.53;;;;;;;;;;4914888;29;20027;-67
2021/12/24 07:11:15;;;;;;;17.95;7.03;;;;;;;;;;4915340;29;20039;-67
2021/12/24 07:13:41;;;;;;;12.75;6.80;;;;;;;;;;4914410;29;20060;-67
2021/12/24 07:16:07;;;;;;;16.23;6.72;;;;;;;;;;4914012;29;20145;-65
2021/12/24 07:18:33;;;;;;;13.40;7.05;;;;;;;;;;4914850;29;20039;-64
2021/12/24 07:20:59;;;;;;;16.08;6.90;;;;;;;;;;4915071;29;20111;-63
2021/12/24 07:23:25;;;;;;;16.95;7.47;;;;;;;;;;4914618;29;20032;-63
2021/12/24 07:25:51;;;;;;;14.40;7.13;;;;;;;;;;4914963;29;20031;-63
2021/12/24 07:28:17;;;;;;;16.17;7.30;;;;;;;;;;4914921;29;20028;-67
2021/12/24 07:30:44;;;;;;;16.77;7.15;;;;;;;;;;4914701;29;20044;-62
2021/12/24 07:33:14;;;;;;;15.93;7.53;;;;;;;;;;4914819;29;20379;-67
2021/12/24 07:35:40;;;;;;;16.08;7.93;;;;;;;;;;4914702;29;20020;-64
2021/12/24 07:38:08;;;;;;;15.02;7.43;;;;;;;;;;4914402;29;20046;-63
2021/12/24 07:40:34;;;;;;;17.63;7.13;;;;;;;;;;4913288;29;20030;-65
2021/12/24 07:43:00;;;;;;;17.95;8.55;;;;;;;;;;4914063;29;20028;-62
2021/12/24 07:45:28;;;;;;;16.98;8.20;;;;;;;;;;4914800;29;20032;-63
2021/12/24 07:48:09;;;;;;;15.63;8.13;;;;;;;;;;4914521;29;20484;-62
2021/12/24 07:53:02;;;;;;;15.57;7.07;;;;;;;;;;4914631;29;20052;-63
2021/12/24 07:55:29;;;;;;;12.07;6.10;;;;;;;;;;4914522;29;20115;-64
2021/12/24 07:57:55;;;;;;;9.52;4.68;;;;;;;;;;4913427;29;20450;-63
2021/12/24 08:00:26;;;;;;;11.40;5.30;;;;;;;;;;4913907;29;20021;-66
2021/12/24 08:02:53;;;;;;;9.20;3.87;;;;;;;;;;4914720;29;20047;-66
2021/12/24 08:05:22;;;;;;;12.98;4.95;;;;;;;;;;4914587;29;21089;-64
2021/12/24 08:07:48;;;;;;;10.20;4.40;;;;;;;;;;4913562;29;20050;-64
2021/12/24 08:10:14;;;;;;;9.30;4.20;;;;;;;;;;4914156;29;20047;-64
2021/12/24 08:12:40;;;;;;;10.10;4.63;;;;;;;;;;4914439;29;20107;-62
2021/12/24 08:15:07;;;;;;;8.15;4.03;;;;;;;;;;4914507;29;20110;-64
2021/12/24 08:17:33;;;;;;;8.90;4.38;;;;;;;;;;4914350;29;20017;-64
2021/12/24 08:19:59;;;;;;;9.77;4.07;;;;;;;;;;4914518;29;20032;-64
2021/12/24 08:22:26;;;;;;;8.88;4.32;;;;;;;;;;4913607;29;20388;-61
2021/12/24 08:24:52;;;;;;;8.60;4.97;;;;;;;;;;4914097;29;20505;-63
2021/12/24 08:27:18;;;;;;;9.05;4.00;;;;;;;;;;4914658;29;20024;-64
2021/12/24 08:29:44;;;;;;;11.10;4.63;;;;;;;;;;4914223;29;20224;-65
2021/12/24 08:32:13;;;;;;;10.10;4.13;;;;;;;;;;4914158;29;20357;-64
2021/12/24 08:34:39;;;;;;;8.98;5.00;;;;;;;;;;4914552;29;20111;-61
2021/12/24 08:37:06;;;;;;;10.57;4.30;;;;;;;;;;4914392;29;20028;-64
2021/12/24 08:39:32;;;;;;;11.38;5.07;;;;;;;;;;4914456;29;20400;-62
2021/12/24 08:41:58;;;;;;;9.05;4.60;;;;;;;;;;4914504;29;20412;-65
2021/12/24 09:34:19;;;;;;;6.35;3.55;;;;;;;;;;4962215;23;20411;-59
2021/12/24 09:36:46;;;;;;;9.00;3.45;;;;;;;;;;4934755;29;20079;-61
2021/12/24 09:39:12;;;;;;;6.32;3.30;;;;;;;;;;4935108;29;20020;-60
2021/12/24 09:41:39;;;;;;;8.75;3.53;;;;;;;;;;4935337;29;20032;-59
2021/12/24 09:44:06;;;;;;;7.90;3.33;;;;;;;;;;4934707;29;20374;-59
2021/12/24 09:46:32;;;;;;;9.05;3.20;;;;;;;;;;4933107;29;20024;-60
2021/12/24 09:48:59;;;;;;;5.22;2.92;;;;;;;;;;4935015;29;20032;-61
2021/12/24 09:51:26;;;;;;;5.03;3.20;;;;;;;;;;4934614;29;20101;-59
2021/12/24 09:53:53;;;;;;;10.43;4.15;;;;;;;;;;4934694;29;20023;-59
2021/12/24 09:56:21;;;;;;;6.60;3.58;;;;;;;;;;4934813;29;20031;-59
2021/12/24 09:58:47;;;;;;;6.05;3.22;;;;;;;;;;4933992;29;20039;-60
2021/12/24 10:01:29;;;;;;;6.60;3.38;;;;;;;;;;4933014;29;20086;-60
2021/12/24 10:04:02;;;;;;;7.28;3.15;;;;;;;;;;4923613;29;20437;-61
2021/12/24 10:06:28;;;;;;;5.55;2.80;;;;;;;;;;4934274;29;20027;-60
2021/12/24 10:09:20;;;;;;;8.35;3.10;;;;;;;;;;4933682;29;20487;-60
2021/12/24 10:11:49;;;;;;;7.45;3.55;;;;;;;;;;4932021;29;20043;-61
2021/12/24 10:14:17;;;;;;;7.22;3.40;;;;;;;;;;4934938;29;20396;-60
2021/12/24 10:16:46;;;;;;;6.70;3.00;;;;;;;;;;4934881;29;20031;-62
2021/12/24 10:19:13;;;;;;;11.00;3.55;;;;;;;;;;4935816;29;20040;-60
2021/12/24 10:21:39;;;;;;;9.30;4.70;;;;;;;;;;4934709;29;20042;-60
2021/12/24 10:24:16;;;;;;;5.65;2.65;;;;;;;;;;4934028;29;20122;-59
2021/12/24 10:26:45;;;;;;;5.07;2.42;;;;;;;;;;4932282;29;20484;-60
2021/12/24 10:29:13;;;;;;;4.88;2.28;;;;;;;;;;4934546;29;20047;-61
2021/12/24 10:31:39;;;;;;;6.82;2.47;;;;;;;;;;4934219;29;20031;-61
2021/12/24 10:34:31;;;;;;;3.55;2.05;;;;;;;;;;4941926;29;20463;-59
2021/12/24 10:36:59;;;;;;;4.72;2.67;;;;;;;;;;4912259;29;20115;-59
2021/12/24 10:39:37;;;;;;;5.70;2.97;;;;;;;;;;4929928;29;20027;-59
2021/12/24 10:42:08;;;;;;;20.70;10.65;;;;;;;;;;4935112;29;20034;-62
2021/12/24 10:44:36;;;;;;;9.48;4.35;;;;;;;;;;4934337;29;20039;-59
2021/12/24 10:47:06;;;;;;;6.72;2.58;;;;;;;;;;4936627;29;20031;-60
2021/12/24 10:52:15;;;;;;;8.30;3.78;;;;;;;;;;4934948;29;20563;-60
2021/12/24 10:54:53;;;;;;;12.02;4.50;;;;;;;;;;4944714;29;20491;-61
2021/12/24 10:57:23;;;;;;;8.75;3.25;;;;;;;;;;4942955;29;20031;-62
2021/12/24 10:59:49;;;;;;;6.90;3.17;;;;;;;;;;4936619;29;20654;-61
2021/12/24 11:02:15;;;;;;;6.47;2.70;;;;;;;;;;4935525;29;20035;-61
2021/12/24 11:04:42;;;;;;;8.75;3.15;;;;;;;;;;4946989;29;20047;-60
2021/12/24 11:07:30;;;;;;;6.18;2.70;;;;;;;;;;4952217;29;20028;-60
2021/12/24 11:10:05;;;;;;;5.15;2.65;;;;;;;;;;4953240;29;20038;-60
2021/12/24 11:12:38;;;;;;;6.43;2.63;;;;;;;;;;4952951;28;20028;-60
2021/12/24 11:15:24;;;;;;;5.47;2.90;;;;;;;;;;4953048;29;20031;-61
2021/12/24 11:17:53;;;;;;;4.82;2.63;;;;;;;;;;4952812;29;20086;-61
2021/12/24 11:20:19;;;;;;;6.97;3.08;;;;;;;;;;4952896;28;20095;-61
2021/12/24 11:22:51;;;;;;;7.32;3.17;;;;;;;;;;4953006;29;20035;-61
2021/12/24 11:25:19;;;;;;;7.20;3.40;;;;;;;;;;4952780;29;20102;-60
2021/12/24 11:27:45;;;;;;;9.35;3.28;;;;;;;;;;4952592;29;20065;-61
2021/12/24 11:30:11;;;;;;;7.35;2.83;;;;;;;;;;4952977;29;20105;-58
2021/12/24 11:32:37;;;;;;;6.93;2.95;;;;;;;;;;4952544;28;20454;-59
2021/12/24 11:35:03;;;;;;;10.85;3.17;;;;;;;;;;4952847;29;20558;-59
2021/12/24 11:37:30;;;;;;;5.72;2.83;;;;;;;;;;4952536;29;20047;-60
2021/12/24 11:39:56;;;;;;;6.72;2.92;;;;;;;;;;4952305;29;20492;-59
2021/12/24 11:42:23;;;;;;;7.97;3.22;;;;;;;;;;4952322;29;20399;-58
2021/12/24 11:44:50;;;;;;;6.53;3.03;;;;;;;;;;4952468;28;20467;-59
2021/12/24 11:47:16;;;;;;;7.90;3.00;;;;;;;;;;4951947;28;20034;-59
2021/12/24 11:49:42;;;;;;;7.35;3.20;;;;;;;;;;4952635;29;20027;-61
2021/12/24 11:52:08;;;;;;;6.82;3.70;;;;;;;;;;4952653;29;20031;-59
2021/12/24 11:54:34;;;;;;;6.78;3.30;;;;;;;;;;4952792;29;20031;-59
2021/12/24 11:57:00;;;;;;;6.38;2.97;;;;;;;;;;4952367;29;20487;-60
2021/12/24 11:59:36;;;;;;;6.35;3.03;;;;;;;;;;4952589;29;20073;-60
2021/12/24 12:02:02;;;;;;;5.97;2.80;;;;;;;;;;4952728;29;20474;-59
2021/12/24 12:04:28;;;;;;;7.63;2.92;;;;;;;;;;4952594;29;20078;-61
2021/12/24 12:07:11;;;;;;;5.53;2.80;;;;;;;;;;4952500;29;20030;-60
2021/12/24 12:09:43;;;;;;;7.00;2.90;;;;;;;;;;4952348;29;20191;-60
2021/12/24 12:12:14;;;;;;;6.45;2.67;;;;;;;;;;4952343;28;20122;-61
2021/12/24 12:14:41;;;;;;;6.32;2.47;;;;;;;;;;4952094;28;20475;-60
2021/12/24 12:17:07;;;;;;;7.38;2.38;;;;;;;;;;4952256;29;20031;-61
2021/12/24 12:22:13;;;;;;;6.13;2.30;;;;;;;;;;4952452;29;20115;-63
2021/12/24 12:27:18;;;;;;;6.72;2.38;;;;;;;;;;4956708;28;20070;-60
2021/12/24 12:29:45;;;;;;;6.72;2.70;;;;;;;;;;4956088;29;20032;-59
2021/12/24 12:32:17;;;;;;;5.68;2.20;;;;;;;;;;4944545;29;20119;-60
2021/12/24 12:34:43;;;;;;;;;;;;;;;;;;4942495;29;20054;-59
2021/12/24 12:37:28;;;;;;;4.88;2.25;;;;;;;;;;4944938;29;19906;-59
2021/12/24 12:39:54;;;;;;;6.43;2.17;;;;;;;;;;4944416;29;20075;-64
2021/12/24 12:42:22;;;;;;;6.20;2.33;;;;;;;;;;4942601;29;20090;-61
2021/12/24 12:44:50;;;;;;;5.05;2.22;;;;;;;;;;4944483;29;20031;-59
2021/12/24 12:47:18;;;;;;;6.22;2.65;;;;;;;;;;4944700;29;20538;-60
2021/12/24 12:49:44;;;;;;;5.78;2.30;;;;;;;;;;4943761;29;20028;-61
2021/12/24 12:52:20;;;;;;;4.75;2.03;;;;;;;;;;4944383;29;20724;-61
2021/12/24 12:54:47;;;;;;;5.80;2.30;;;;;;;;;;4955031;28;20718;-61
2021/12/24 12:57:33;;;;;;;4.32;2.38;;;;;;;;;;4955685;28;20450;-60
2021/12/24 13:00:17;;;;;;;5.75;2.33;;;;;;;;;;4955126;29;20090;-62
2021/12/24 13:03:01;;;;;;;5.03;2.28;;;;;;;;;;4955139;29;20057;-61
2021/12/24 13:05:31;;;;;;;5.88;2.60;;;;;;;;;;4931516;29;20127;-63
2021/12/24 13:08:00;;;;;;;5.80;2.53;;;;;;;;;;4941549;29;20058;-62
2021/12/24 13:10:29;;;;;;;5.68;2.75;;;;;;;;;;4944207;29;20026;-61
2021/12/24 13:13:02;;;;;;;4.88;3.08;;;;;;;;;;4938001;29;20037;-63
2021/12/24 13:15:29;;;;;;;5.90;2.70;;;;;;;;;;4944659;28;20424;-63
2021/12/24 13:17:59;;;;;;;5.15;2.63;;;;;;;;;;4943254;29;20019;-63
2021/12/24 13:20:44;;;;;;;4.93;2.33;;;;;;;;;;4944724;29;20118;-61
2021/12/24 13:23:22;;;;;;;7.28;2.95;;;;;;;;;;4943499;29;20455;-61
2021/12/24 13:25:48;;;;;;;6.57;3.15;;;;;;;;;;4951980;29;20165;-59
2021/12/24 13:28:15;;;;;;;7.45;2.78;;;;;;;;;;4945202;29;20479;-63
2021/12/24 13:30:41;;;;;;;6.47;3.13;;;;;;;;;;4947006;29;20027;-63
2021/12/24 13:33:08;;;;;;;7.25;2.78;;;;;;;;;;4954475;29;20134;-63
2021/12/24 13:35:39;;;;;;;5.25;2.85;;;;;;;;;;4954100;28;20047;-63
2021/12/24 13:38:11;;;;;;;5.43;2.85;;;;;;;;;;4954728;29;20029;-61
2021/12/24 13:40:37;;;;;;;;;;;;;;;;;;4955328;28;20031;-64
2021/12/24 13:43:07;;;;;;;5.80;2.55;;;;;;;;;;4954628;29;19973;-64
2021/12/24 13:45:36;;;;;;;7.47;2.67;;;;;;;;;;4954844;29;20027;-62
2021/12/24 13:48:13;;;;;;;8.43;2.90;;;;;;;;;;4954115;29;20089;-62
2021/12/24 13:56:16;;;;;;;6.10;3.13;;;;;;;;;;4954595;29;20809;-62
2021/12/24 13:58:49;;;;;;;8.32;3.40;;;;;;;;;;4954391;29;20046;-62
2021/12/24 14:01:15;;;;;;;6.32;3.17;;;;;;;;;;4954767;29;20032;-62
2021/12/24 14:03:41;;;;;;;7.80;2.80;;;;;;;;;;4954034;29;20039;-63
2021/12/24 14:06:08;;;;;;;6.55;3.17;;;;;;;;;;4954271;28;20029;-63
2021/12/24 14:08:37;;;;;;;5.88;2.63;;;;;;;;;;4954553;28;20027;-63
2021/12/24 14:11:12;;;;;;;6.28;3.10;;;;;;;;;;4954234;28;20031;-65
2021/12/24 14:13:45;;;;;;;7.38;2.80;;;;;;;;;;4954352;29;20435;-63
2021/12/24 14:24:11;;;;;;;13.93;6.90;;;;;;;;;;4954894;28;20109;-63
2021/12/24 14:26:39;;;;;;;7.25;4.20;;;;;;;;;;4954182;29;20027;-63
2021/12/24 14:29:06;;;;;;;9.32;3.70;;;;;;;;;;4953891;29;20035;-62
2021/12/24 14:31:49;;;;;;;8.25;3.83;;;;;;;;;;4953737;29;20090;-62
2021/12/24 14:34:34;;;;;;;8.82;4.50;;;;;;;;;;4953334;29;20065;-61
2021/12/24 14:37:04;;;;;;;10.18;3.97;;;;;;;;;;4953825;29;20361;-62
2021/12/24 14:39:34;;;;;;;7.00;3.60;;;;;;;;;;4953903;29;20126;-61
2021/12/24 14:42:09;;;;;;;6.70;3.03;;;;;;;;;;4953744;29;20484;-62
2021/12/24 14:44:36;;;;;;;9.90;4.82;;;;;;;;;;4953213;29;20110;-60
2021/12/24 14:47:02;;;;;;;14.45;7.47;;;;;;;;;;4924531;29;20375;-60
2021/12/24 14:49:33;;;;;;;10.77;5.68;;;;;;;;;;4939527;29;20027;-60
2021/12/24 14:52:14;;;;;;;9.23;4.47;;;;;;;;;;4924247;29;20035;-60
2021/12/24 14:54:59;;;;;;;12.43;5.78;;;;;;;;;;4942559;29;20772;-60
2021/12/24 14:57:25;;;;;;;8.30;4.85;;;;;;;;;;4933133;29;20075;-60
2021/12/24 14:59:52;;;;;;;10.18;4.30;;;;;;;;;;4943160;29;20035;-61
2021/12/24 15:02:18;;;;;;;12.73;7.07;;;;;;;;;;4942565;29;20434;-61
2021/12/24 15:04:45;;;;;;;15.35;6.55;;;;;;;;;;4933771;29;20070;-59
2021/12/24 15:07:11;;;;;;;17.85;10.40;;;;;;;;;;4913885;29;20024;-59
2021/12/24 15:09:39;;;;;;;12.20;6.05;;;;;;;;;;4935622;29;20094;-59
2021/12/24 15:12:22;;;;;;;11.65;6.30;;;;;;;;;;4931803;29;20027;-59
2021/12/24 15:14:48;;;;;;;11.70;6.53;;;;;;;;;;4933258;29;20087;-60
2021/12/24 15:17:14;;;;;;;16.52;8.05;;;;;;;;;;4933647;29;20028;-61
2021/12/24 15:19:40;;;;;;;17.50;9.48;;;;;;;;;;4933546;29;20055;-60
2021/12/24 15:22:06;;;;;;;19.63;10.63;;;;;;;;;;4933517;29;20073;-60
2021/12/24 15:24:32;;;;;;;16.88;8.63;;;;;;;;;;4933450;29;20063;-60
2021/12/24 15:26:59;;;;;;;40.40;21.27;;;;;;;;;;4934444;29;20020;-60
2021/12/24 15:29:25;;;;;;;34.58;17.85;;;;;;;;;;4937716;28;20091;-60
2021/12/24 15:31:54;;;;;;;24.65;12.73;;;;;;;;;;4940318;29;20027;-62
2021/12/24 15:34:23;;;;;;;20.02;10.35;;;;;;;;;;4948075;29;20062;-62
2021/12/24 15:36:53;;;;;;;26.70;11.80;;;;;;;;;;4927415;29;20094;-60
2021/12/24 15:39:19;;;;;;;22.27;11.35;;;;;;;;;;4933942;29;20043;-60
2021/12/24 15:41:47;;;;;;;20.30;9.35;;;;;;;;;;4942443;29;20038;-60
2021/12/24 15:44:15;;;;;;;59.97;28.35;;;;;;;;;;4932014;29;20126;-60
2021/12/24 15:46:42;;;;;;;34.20;17.83;;;;;;;;;;4908704;29;20513;-60
2021/12/24 15:49:09;;;;;;;36.00;16.92;;;;;;;;;;4912271;29;20146;-61
2021/12/24 15:51:36;;;;;;;30.05;16.08;;;;;;;;;;4916708;29;20111;-60
2021/12/24 15:54:02;;;;;;;22.30;10.90;;;;;;;;;;4933302;29;20090;-60
2021/12/24 15:56:28;;;;;;;21.33;11.32;;;;;;;;;;4933375;29;20115;-60
2021/12/24 15:58:56;;;;;;;19.73;9.45;;;;;;;;;;4934605;29;20091;-61
2021/12/24 16:01:22;;;;;;;16.52;8.40;;;;;;;;;;4928749;29;20064;-62
2021/12/24 16:03:49;;;;;;;16.15;8.52;;;;;;;;;;4917921;29;20051;-62
2021/12/24 16:06:17;;;;;;;17.35;8.15;;;;;;;;;;4901965;29;20063;-61
2021/12/24 16:08:43;;;;;;;18.83;9.38;;;;;;;;;;4921110;29;20467;-62
2021/12/24 16:11:09;;;;;;;20.52;9.50;;;;;;;;;;4926076;29;20426;-61
2021/12/24 16:13:36;;;;;;;23.38;10.85;;;;;;;;;;4951898;29;20063;-62
2021/12/24 16:16:05;;;;;;;20.60;10.00;;;;;;;;;;4929361;29;20036;-62
2021/12/24 16:24:41;;;;;;;18.63;7.95;;;;;;;;;;4946432;29;20387;-63
2021/12/24 16:27:10;;;;;;;18.40;9.73;;;;;;;;;;4955960;29;20114;-60
2021/12/24 16:30:13;;;;;;;18.00;9.57;;;;;;;;;;4955816;28;20047;-62
2021/12/24 16:32:41;;;;;;;14.48;8.23;;;;;;;;;;4851696;29;20458;-61
2021/12/24 16:35:11;;;;;;;15.90;8.27;;;;;;;;;;4840142;29;20458;-60
2021/12/24 16:37:37;;;;;;;20.45;10.00;;;;;;;;;;4840640;29;20053;-60
2021/12/24 16:40:05;;;;;;;17.23;9.57;;;;;;;;;;4841328;29;20046;-61
2021/12/24 16:42:31;;;;;;;18.27;8.70;;;;;;;;;;4848455;29;20041;-60
2021/12/24 16:44:57;;;;;;;21.05;8.88;;;;;;;;;;4854096;29;20504;-61
2021/12/24 16:47:23;;;;;;;18.02;10.18;;;;;;;;;;4848305;29;20041;-60
2021/12/24 16:49:49;;;;;;;20.02;10.77;;;;;;;;;;4855096;29;20539;-60
2021/12/24 16:52:16;;;;;;;21.27;10.52;;;;;;;;;;4858881;29;20040;-60
2021/12/24 16:54:42;;;;;;;20.75;10.23;;;;;;;;;;4858344;29;20048;-60
2021/12/24 16:57:08;;;;;;;19.52;9.23;;;;;;;;;;4858409;29;20166;-60
2021/12/24 16:59:40;;;;;;;26.98;12.77;;;;;;;;;;4843183;29;20053;-62
2021/12/24 17:02:08;;;;;;;20.90;9.80;;;;;;;;;;4925394;29;20068;-60
2021/12/24 17:04:34;;;;;;;17.60;8.20;;;;;;;;;;4915383;29;20032;-60
2021/12/24 17:07:00;;;;;;;19.25;9.13;;;;;;;;;;4935818;29;20502;-61
2021/12/24 17:09:27;;;;;;;18.88;9.35;;;;;;;;;;4935152;29;20095;-63
2021/12/24 17:11:53;;;;;;;19.08;8.77;;;;;;;;;;4909838;29;20023;-63
2021/12/24 17:14:23;;;;;;;16.15;8.18;;;;;;;;;;4912661;29;20031;-60
2021/12/24 17:16:49;;;;;;;16.55;8.30;;;;;;;;;;4919549;29;20119;-60
2021/12/24 17:19:15;;;;;;;16.52;7.38;;;;;;;;;;4917706;29;20127;-60
2021/12/24 17:21:43;;;;;;;14.00;7.20;;;;;;;;;;4924355;29;20074;-62
2021/12/24 17:24:09;;;;;;;17.05;8.50;;;;;;;;;;4955998;28;20473;-62
2021/12/24 17:26:35;;;;;;;12.00;6.70;;;;;;;;;;4938102;29;20031;-62
2021/12/24 17:29:01;;;;;;;15.20;6.35;;;;;;;;;;4922627;29;20027;-60
2021/12/24 17:31:27;;;;;;;11.73;6.03;;;;;;;;;;4956269;29;20062;-62
2021/12/24 17:33:54;;;;;;;12.98;5.68;;;;;;;;;;4955837;29;20091;-62
2021/12/24 17:36:21;;;;;;;12.65;6.15;;;;;;;;;;4955495;29;20035;-62
2021/12/24 17:38:47;;;;;;;9.77;5.70;;;;;;;;;;4938970;29;20027;-62
2021/12/24 17:41:13;;;;;;;17.88;8.40;;;;;;;;;;4955405;29;20071;-61
2021/12/24 17:43:39;;;;;;;11.10;6.53;;;;;;;;;;4956555;29;20023;-61
2021/12/24 17:46:06;;;;;;;18.73;9.88;;;;;;;;;;4956689;29;20027;-60
2021/12/24 17:48:34;;;;;;;15.10;7.32;;;;;;;;;;4955167;29;20035;-61